createdAt,value
2022-08-08T00:00:50.113Z,60.43
2022-08-08T00:00:52.465Z,60.43
2022-08-08T00:01:10.305Z,60.43
2022-08-08T00:02:31.549Z,60.43
2022-08-08T00:03:19.855Z,60.63
2022-08-08T00:04:10.373Z,60.43
2022-08-08T00:05:10.349Z,60.43
2022-08-08T00:06:10.354Z,60.72
2022-08-08T00:07:12.685Z,60.43
2022-08-08T00:08:10.367Z,60.53
2022-08-08T00:09:12.187Z,60.43
2022-08-08T00:10:10.483Z,60.53
2022-08-08T00:11:13.174Z,60.63
2022-08-08T00:12:10.726Z,60.72
2022-08-08T00:13:10.578Z,60.63
2022-08-08T00:14:15.841Z,60.24
2022-08-08T00:15:10.450Z,60.14
2022-08-08T00:16:10.450Z,60.72
2022-08-08T00:17:22.751Z,60.43
2022-08-08T00:18:10.478Z,60.82
2022-08-08T00:19:10.683Z,60.63
2022-08-08T00:20:14.754Z,60.34
2022-08-08T00:21:10.509Z,60.43
2022-08-08T00:22:10.749Z,60.43
2022-08-08T00:23:10.529Z,60.43
2022-08-08T00:24:10.543Z,60.43
2022-08-08T00:25:10.551Z,60.34
2022-08-08T00:26:13.006Z,60.63
2022-08-08T00:27:10.563Z,60.72
2022-08-08T00:28:34.295Z,60.24
2022-08-08T00:29:10.587Z,60.43
2022-08-08T00:30:11.322Z,60.53
2022-08-08T00:32:15.496Z,60.34
2022-08-08T00:32:32.664Z,60.40
2022-08-08T00:33:10.624Z,60.69
2022-08-08T00:34:17.895Z,61.20
2022-08-08T00:35:18.819Z,61.01
2022-08-08T00:36:14.976Z,61.40
2022-08-08T00:37:16.547Z,61.46
2022-08-08T00:38:30.951Z,61.36
2022-08-08T00:41:08.077Z,61.84
2022-08-08T00:41:10.327Z,61.94
2022-08-08T00:41:14.650Z,61.36
2022-08-08T00:42:19.827Z,61.65
2022-08-08T00:43:19.252Z,61.75
2022-08-08T00:44:10.743Z,61.36
2022-08-08T00:45:21.781Z,61.65
2022-08-08T00:46:17.020Z,61.75
2022-08-08T00:47:14.117Z,61.75
2022-08-08T00:48:29.420Z,62.04
2022-08-08T00:49:22.205Z,62.23
2022-08-08T00:50:10.797Z,62.52
2022-08-08T00:51:10.808Z,62.32
2022-08-08T00:52:19.954Z,62.81
2022-08-08T00:53:15.603Z,62.61
2022-08-08T00:54:15.851Z,62.52
2022-08-08T00:55:10.847Z,62.90
2022-08-08T00:56:11.508Z,62.71
2022-08-08T00:57:19.761Z,62.61
2022-08-08T00:58:13.695Z,62.90
2022-08-08T00:59:10.890Z,62.52
2022-08-08T01:00:10.932Z,62.90
2022-08-08T01:12:55.896Z,62.39
2022-08-08T01:13:58.047Z,62.48
2022-08-08T01:15:00.166Z,62.87
2022-08-08T01:15:55.915Z,62.58
2022-08-08T01:16:55.924Z,62.58
2022-08-08T01:17:56.957Z,62.58
2022-08-08T01:18:55.952Z,62.39
2022-08-08T01:20:02.754Z,62.68
2022-08-08T01:20:55.966Z,63.06
2022-08-08T01:22:07.195Z,62.96
2022-08-08T01:22:55.983Z,62.87
2022-08-08T01:24:05.653Z,62.87
2022-08-08T01:24:56.002Z,62.77
2022-08-08T01:25:56.015Z,63.54
2022-08-08T01:26:56.023Z,63.16
2022-08-08T01:28:00.168Z,63.35
2022-08-08T01:28:56.043Z,63.54
2022-08-08T01:29:59.655Z,63.35
2022-08-08T01:30:56.061Z,63.54
2022-08-08T01:32:13.806Z,63.54
2022-08-08T01:32:56.082Z,63.35
2022-08-08T01:34:01.250Z,63.83
2022-08-08T01:37:57.848Z,64.02
2022-08-08T01:38:21.971Z,63.92
2022-08-08T01:39:24.119Z,63.54
2022-08-08T01:40:21.997Z,63.16
2022-08-08T01:42:36.413Z,63.92
2022-08-08T01:44:12.146Z,63.25
2022-08-08T01:45:13.999Z,63.25
2022-08-08T01:46:12.167Z,63.45
2022-08-08T01:48:13.710Z,63.35
2022-08-08T01:48:23.806Z,63.16
2022-08-08T01:49:23.003Z,62.77
2022-08-08T01:50:12.212Z,63.06
2022-08-08T01:51:31.612Z,62.77
2022-08-08T01:52:54.426Z,62.74
2022-08-08T01:55:17.986Z,63.54
2022-08-08T01:55:18.020Z,63.12
2022-08-08T01:55:26.173Z,63.03
2022-08-08T01:56:30.427Z,62.84
2022-08-08T01:57:17.591Z,62.84
2022-08-08T01:58:13.747Z,62.93
2022-08-08T01:59:12.287Z,62.93
2022-08-08T02:00:13.058Z,63.03
2022-08-08T02:01:15.980Z,62.74
2022-08-08T02:02:34.673Z,62.84
2022-08-08T02:03:56.917Z,62.84
2022-08-08T02:04:12.343Z,62.55
2022-08-08T02:05:12.351Z,62.65
2022-08-08T02:06:32.570Z,63.03
2022-08-08T02:07:13.643Z,63.12
2022-08-08T02:08:12.375Z,63.12
2022-08-08T02:09:15.885Z,63.51
2022-08-08T02:10:12.609Z,63.03
2022-08-08T02:11:23.814Z,62.84
2022-08-08T02:12:12.701Z,62.93
2022-08-08T02:13:53.212Z,62.93
2022-08-08T02:14:12.434Z,62.84
2022-08-08T02:15:12.695Z,63.03
2022-08-08T02:16:21.200Z,62.93
2022-08-08T02:17:18.008Z,63.03
2022-08-08T02:18:12.468Z,63.03
2022-08-08T02:19:41.492Z,63.03
2022-08-08T02:20:15.925Z,62.93
2022-08-08T02:21:13.161Z,62.93
2022-08-08T02:22:13.245Z,62.74
2022-08-08T02:23:16.382Z,62.84
2022-08-08T02:24:14.837Z,62.74
2022-08-08T02:25:15.141Z,63.32
2022-08-08T02:26:12.550Z,63.51
2022-08-08T02:27:12.550Z,63.51
2022-08-08T02:28:12.562Z,63.51
2022-08-08T02:29:14.942Z,63.51
2022-08-08T02:30:20.741Z,63.42
2022-08-08T02:31:44.005Z,63.32
2022-08-08T02:32:15.786Z,63.89
2022-08-08T02:33:12.607Z,63.99
2022-08-08T02:34:15.031Z,63.99
2022-08-08T02:35:12.632Z,64.37
2022-08-08T02:36:16.463Z,64.18
2022-08-08T02:37:52.012Z,64.37
2022-08-08T02:39:40.082Z,64.82
2022-08-08T02:40:05.295Z,64.63
2022-08-08T02:41:59.097Z,64.82
2022-08-08T02:42:47.798Z,64.72
2022-08-08T02:44:38.862Z,65.39
2022-08-08T02:44:57.815Z,65.39
2022-08-08T02:45:54.351Z,65.20
2022-08-08T02:46:47.829Z,65.39
2022-08-08T02:47:54.855Z,65.49
2022-08-08T02:48:48.071Z,65.68
2022-08-08T02:49:51.489Z,65.59
2022-08-08T02:50:55.736Z,65.88
2022-08-08T02:51:56.983Z,65.88
2022-08-08T02:52:50.939Z,65.59
2022-08-08T02:53:47.892Z,65.49
2022-08-08T02:54:50.206Z,65.39
2022-08-08T02:55:47.910Z,65.36
2022-08-08T02:56:47.921Z,65.84
2022-08-08T02:57:50.696Z,66.03
2022-08-08T02:58:47.944Z,66.03
2022-08-08T02:59:58.431Z,65.84
2022-08-08T03:00:50.711Z,66.03
2022-08-08T03:01:50.429Z,66.13
2022-08-08T03:02:50.456Z,65.94
2022-08-08T03:05:02.895Z,65.94
2022-08-08T03:05:03.952Z,66.03
2022-08-08T03:05:53.561Z,66.32
2022-08-08T03:06:48.010Z,66.13
2022-08-08T03:07:58.022Z,66.03
2022-08-08T03:08:51.924Z,66.03
2022-08-08T03:09:48.046Z,65.94
2022-08-08T03:10:53.520Z,66.22
2022-08-08T03:12:02.615Z,66.22
2022-08-08T03:13:01.462Z,65.84
2022-08-08T03:15:57.087Z,65.94
2022-08-08T03:16:00.419Z,66.03
2022-08-08T03:16:04.028Z,66.03
2022-08-08T03:16:48.568Z,66.03
2022-08-08T03:17:52.102Z,65.94
2022-08-08T03:18:48.120Z,66.32
2022-08-08T03:19:50.834Z,66.32
2022-08-08T03:21:54.769Z,66.51
2022-08-08T03:22:48.215Z,66.61
2022-08-08T03:24:30.713Z,67.18
2022-08-08T03:25:35.948Z,66.80
2022-08-08T03:26:31.060Z,67.18
2022-08-08T03:28:13.283Z,67.09
2022-08-08T03:30:10.868Z,66.99
2022-08-08T03:35:25.055Z,67.38
2022-08-08T03:36:27.597Z,67.57
2022-08-08T03:38:55.055Z,67.47
2022-08-08T03:38:56.152Z,67.28
2022-08-08T03:39:25.149Z,67.18
2022-08-08T03:40:30.651Z,67.66
2022-08-08T03:42:11.996Z,67.66
2022-08-08T03:42:30.206Z,67.63
2022-08-08T03:43:25.134Z,68.05
2022-08-08T03:44:25.536Z,68.05
2022-08-08T03:46:07.275Z,67.95
2022-08-08T03:46:25.529Z,68.05
2022-08-08T03:47:25.239Z,67.95
2022-08-08T03:48:36.228Z,68.24
2022-08-08T03:49:56.482Z,68.14
2022-08-08T03:50:26.113Z,68.59
2022-08-08T03:51:40.160Z,68.11
2022-08-08T03:52:26.980Z,68.52
2022-08-08T03:53:42.632Z,68.05
2022-08-08T03:54:52.209Z,68.05
2022-08-08T03:55:57.456Z,68.21
2022-08-08T03:56:31.773Z,67.76
2022-08-08T03:58:30.876Z,67.76
2022-08-08T03:58:34.931Z,68.49
2022-08-08T03:59:26.287Z,68.52
2022-08-08T04:00:26.178Z,68.01
2022-08-08T04:01:26.398Z,68.24
2022-08-08T04:02:33.150Z,68.05
2022-08-08T04:03:26.017Z,67.95
2022-08-08T04:04:30.665Z,67.91
2022-08-08T04:06:55.404Z,67.91
2022-08-08T04:07:58.296Z,67.44
2022-08-08T04:09:58.786Z,67.34
2022-08-08T04:11:25.676Z,67.34
2022-08-08T04:12:25.538Z,67.25
2022-08-08T04:13:25.546Z,67.25
2022-08-08T04:14:34.931Z,67.34
2022-08-08T04:15:30.251Z,67.47
2022-08-08T04:16:38.769Z,67.34
2022-08-08T04:18:16.484Z,67.54
2022-08-08T04:19:24.064Z,67.25
2022-08-08T04:20:13.145Z,67.25
2022-08-08T04:21:13.159Z,66.67
2022-08-08T04:22:13.586Z,67.05
2022-08-08T04:23:13.179Z,67.09
2022-08-08T04:26:57.169Z,66.80
2022-08-08T04:29:55.300Z,66.89
2022-08-08T04:30:55.065Z,67.09
2022-08-08T04:31:59.144Z,66.89
2022-08-08T04:32:53.504Z,66.80
2022-08-08T04:33:57.542Z,66.99
2022-08-08T04:34:58.489Z,67.18
2022-08-08T04:35:53.519Z,66.99
2022-08-08T04:42:07.910Z,67.09
2022-08-08T05:22:50.078Z,65.97
2022-08-08T05:23:50.087Z,65.59
2022-08-08T05:24:50.098Z,65.59
2022-08-08T05:25:50.101Z,65.68
2022-08-08T05:26:50.104Z,65.88
2022-08-08T05:27:50.118Z,65.62
2022-08-08T05:28:57.457Z,65.20
2022-08-08T05:29:51.847Z,65.33
2022-08-08T05:30:50.138Z,65.23
2022-08-08T05:32:03.111Z,65.23
2022-08-08T05:32:50.154Z,65.62
2022-08-08T05:33:50.185Z,65.05
2022-08-08T05:34:50.179Z,65.05
2022-08-08T05:35:53.998Z,65.33
2022-08-08T05:36:50.191Z,64.76
2022-08-08T05:37:53.120Z,64.95
2022-08-08T05:38:50.214Z,65.05
2022-08-08T05:39:50.276Z,64.56
2022-08-08T05:40:54.457Z,64.66
2022-08-08T05:41:55.148Z,64.76
2022-08-08T05:42:50.247Z,64.98
2022-08-08T05:44:03.205Z,64.98
2022-08-08T05:44:51.580Z,64.89
2022-08-08T05:45:54.972Z,64.89
2022-08-08T05:46:51.380Z,64.98
2022-08-08T05:48:00.613Z,64.40
2022-08-08T05:48:52.700Z,64.40
2022-08-08T05:49:54.276Z,64.22
2022-08-08T05:50:50.321Z,64.12
2022-08-08T05:51:50.327Z,64.31
2022-08-08T05:52:50.332Z,64.79
2022-08-08T05:54:24.919Z,64.31
2022-08-08T05:54:53.575Z,64.69
2022-08-08T05:56:09.832Z,64.59
2022-08-08T05:56:51.583Z,64.40
2022-08-08T05:58:04.580Z,64.69
2022-08-08T05:58:57.449Z,64.31
2022-08-08T05:59:52.379Z,64.72
2022-08-08T06:00:58.655Z,64.53
2022-08-08T06:01:51.129Z,64.63
2022-08-08T06:02:50.445Z,64.72
2022-08-08T06:03:53.601Z,64.25
2022-08-08T06:04:54.909Z,64.43
2022-08-08T06:05:51.700Z,64.34
2022-08-08T06:06:50.558Z,64.25
2022-08-08T06:07:50.480Z,64.05
2022-08-08T06:08:53.417Z,64.05
2022-08-08T06:10:00.440Z,63.99
2022-08-08T06:10:50.512Z,63.89
2022-08-08T06:11:50.508Z,63.51
2022-08-08T06:12:50.518Z,63.51
2022-08-08T06:13:50.526Z,63.32
2022-08-08T06:14:50.544Z,63.51
2022-08-08T06:15:53.775Z,63.60
2022-08-08T06:16:52.035Z,63.51
2022-08-08T06:18:19.908Z,63.51
2022-08-08T06:18:50.576Z,63.41
2022-08-08T06:19:50.584Z,63.22
2022-08-08T06:20:50.594Z,63.22
2022-08-08T06:21:56.689Z,63.41
2022-08-08T06:22:50.620Z,63.60
2022-08-08T06:24:04.727Z,62.87
2022-08-08T06:24:51.221Z,63.06
2022-08-08T06:26:35.980Z,63.15
2022-08-08T06:26:52.387Z,62.58
2022-08-08T06:27:50.670Z,62.77
2022-08-08T06:28:54.245Z,62.58
2022-08-08T06:30:00.124Z,62.48
2022-08-08T06:30:50.690Z,62.68
2022-08-08T06:32:09.221Z,62.00
2022-08-08T06:32:52.617Z,61.84
2022-08-08T06:34:25.067Z,62.13
2022-08-08T06:34:56.477Z,61.55
2022-08-08T06:36:07.192Z,61.81
2022-08-08T06:36:53.735Z,61.71
2022-08-08T06:37:51.034Z,61.71
2022-08-08T06:38:50.776Z,61.71
2022-08-08T06:39:55.719Z,61.71
2022-08-08T06:40:53.752Z,62.00
2022-08-08T06:41:50.809Z,61.91
2022-08-08T06:42:50.809Z,61.91
2022-08-08T06:43:57.148Z,62.00
2022-08-08T06:44:50.836Z,61.91
2022-08-08T06:45:50.839Z,61.94
2022-08-08T06:46:50.854Z,62.13
2022-08-08T06:47:58.169Z,62.13
2022-08-08T06:48:50.875Z,61.84
2022-08-08T06:49:54.768Z,62.03
2022-08-08T06:50:52.105Z,61.46
2022-08-08T06:51:57.673Z,61.74
2022-08-08T06:52:50.908Z,61.74
2022-08-08T06:53:56.150Z,61.36
2022-08-08T06:54:50.935Z,61.58
2022-08-08T06:56:00.707Z,61.68
2022-08-08T06:56:51.543Z,61.10
2022-08-08T06:57:56.402Z,61.29
2022-08-08T06:58:50.974Z,61.10
2022-08-08T07:00:10.025Z,61.29
2022-08-08T07:00:50.989Z,61.19
2022-08-08T07:02:18.103Z,61.29
2022-08-08T07:02:51.073Z,61.29
2022-08-08T07:04:35.632Z,61.10
2022-08-08T07:04:52.239Z,61.29
2022-08-08T07:06:02.053Z,61.00
2022-08-08T07:06:51.242Z,60.91
2022-08-08T07:07:51.061Z,60.84
2022-08-08T07:08:51.446Z,60.72
2022-08-08T07:09:59.970Z,60.84
2022-08-08T07:10:51.098Z,60.65
2022-08-08T07:11:51.859Z,60.55
2022-08-08T07:12:51.118Z,60.55
2022-08-08T07:14:00.444Z,60.75
2022-08-08T07:14:51.634Z,60.36
2022-08-08T07:16:04.891Z,59.97
2022-08-08T07:16:54.275Z,60.17
2022-08-08T07:18:01.939Z,60.17
2022-08-08T07:18:51.171Z,60.30
2022-08-08T07:19:51.190Z,60.27
2022-08-08T07:20:51.635Z,60.10
2022-08-08T07:21:51.204Z,59.81
2022-08-08T07:22:51.219Z,59.62
2022-08-08T07:24:01.006Z,59.72
2022-08-08T07:24:51.234Z,59.62
2022-08-08T07:25:54.627Z,59.81
2022-08-08T07:26:53.048Z,59.33
2022-08-08T07:28:02.320Z,59.33
2022-08-08T07:28:51.276Z,59.62
2022-08-08T07:30:00.273Z,58.95
2022-08-08T07:30:51.302Z,58.65
2022-08-08T07:31:51.317Z,58.69
2022-08-08T07:32:51.325Z,58.59
2022-08-08T07:33:53.272Z,58.78
2022-08-08T07:35:00.769Z,58.20
2022-08-08T07:35:54.574Z,57.82
2022-08-08T07:36:51.367Z,57.62
2022-08-08T07:38:04.894Z,57.62
2022-08-08T07:38:53.292Z,57.62
2022-08-08T07:39:55.984Z,57.62
2022-08-08T07:40:51.410Z,57.72
2022-08-08T07:42:03.471Z,57.43
2022-08-08T07:42:51.430Z,57.53
2022-08-08T07:43:53.596Z,57.53
2022-08-08T07:44:51.446Z,57.34
2022-08-08T07:46:17.918Z,57.24
2022-08-08T07:46:51.466Z,56.95
2022-08-08T07:47:51.718Z,56.66
2022-08-08T07:48:51.494Z,56.79
2022-08-08T07:49:51.504Z,57.17
2022-08-08T07:50:51.509Z,56.40
2022-08-08T07:51:53.625Z,56.40
2022-08-08T07:52:51.529Z,56.21
2022-08-08T07:54:01.518Z,55.63
2022-08-08T07:54:51.550Z,55.82
2022-08-08T07:55:51.563Z,56.21
2022-08-08T07:56:51.583Z,56.11
2022-08-08T07:57:51.584Z,55.92
2022-08-08T07:58:51.601Z,55.94
2022-08-08T07:59:51.617Z,55.66
2022-08-08T08:00:51.666Z,55.56
2022-08-08T08:02:36.849Z,55.46
2022-08-08T08:02:51.648Z,55.56
2022-08-08T08:03:51.648Z,56.14
2022-08-08T08:04:52.297Z,55.85
2022-08-08T08:05:51.719Z,55.46
2022-08-08T08:06:51.681Z,55.20
2022-08-08T08:07:53.417Z,55.36
2022-08-08T08:08:52.320Z,55.01
2022-08-08T08:09:51.720Z,54.82
2022-08-08T08:10:51.934Z,55.10
2022-08-08T08:11:52.729Z,54.33
2022-08-08T08:12:51.757Z,54.53
2022-08-08T08:14:07.670Z,54.75
2022-08-08T08:14:51.770Z,54.27
2022-08-08T08:15:51.787Z,53.88
2022-08-08T08:16:51.801Z,53.03
2022-08-08T08:17:55.993Z,52.65
2022-08-08T08:18:56.495Z,52.65
2022-08-08T08:19:55.781Z,52.17
2022-08-08T08:20:51.845Z,51.90
2022-08-08T08:21:57.145Z,51.61
2022-08-08T08:22:51.859Z,51.71
2022-08-08T08:23:51.877Z,50.67
2022-08-08T08:24:51.882Z,49.80
2022-08-08T08:25:56.685Z,49.80
2022-08-08T08:26:52.725Z,49.54
2022-08-08T08:27:51.924Z,49.34
2022-08-08T08:28:51.930Z,48.69
2022-08-08T08:29:53.344Z,48.22
2022-08-08T08:30:51.956Z,47.45
2022-08-08T08:31:57.572Z,46.67
2022-08-08T08:32:52.218Z,46.99
2022-08-08T08:33:51.983Z,46.70
2022-08-08T08:34:52.003Z,46.53
2022-08-08T08:36:17.947Z,46.38
2022-08-08T08:36:54.937Z,45.55
2022-08-08T08:38:14.540Z,44.28
2022-08-08T08:38:52.044Z,42.88
2022-08-08T08:40:01.954Z,41.58
2022-08-08T08:40:52.076Z,40.48
2022-08-08T08:41:52.084Z,38.76
2022-08-08T08:42:52.091Z,37.84
2022-08-08T08:43:52.919Z,36.30
2022-08-08T08:44:54.738Z,34.87
2022-08-08T08:46:50.905Z,32.95
2022-08-08T08:47:49.729Z,31.79
2022-08-08T08:49:37.296Z,29.83
2022-08-08T08:50:40.865Z,28.55
2022-08-08T08:51:37.861Z,28.06
2022-08-08T08:55:25.073Z,26.62
2022-08-08T08:56:25.099Z,26.53
2022-08-08T08:58:22.690Z,26.04
2022-08-08T09:00:14.769Z,25.08
2022-08-08T16:06:28.860Z,30.18
2022-08-08T16:07:15.545Z,30.38
2022-08-08T16:08:19.969Z,30.57
2022-08-08T16:13:03.640Z,30.67
2022-08-08T16:13:11.832Z,30.47
2022-08-08T16:13:28.300Z,30.47
2022-08-08T16:13:41.951Z,31.16
2022-08-08T16:14:33.810Z,31.06
2022-08-08T16:15:33.285Z,31.25
2022-08-08T16:16:33.310Z,30.96
2022-08-08T16:18:56.572Z,30.96
2022-08-08T16:19:59.613Z,30.96
2022-08-08T16:20:45.969Z,30.87
2022-08-08T16:21:49.135Z,30.87
2022-08-08T16:22:46.077Z,30.87
2022-08-08T16:23:46.022Z,30.77
2022-08-08T16:24:46.044Z,30.96
2022-08-08T16:25:54.638Z,30.87
2022-08-08T16:26:46.081Z,30.87
2022-08-08T16:27:46.099Z,30.87
2022-08-08T16:28:46.116Z,30.77
2022-08-08T16:30:13.734Z,30.77
2022-08-08T16:30:46.143Z,30.77
2022-08-08T16:31:48.958Z,30.77
2022-08-08T16:32:48.412Z,30.94
2022-08-08T16:33:50.987Z,31.16
2022-08-08T16:34:46.223Z,30.96
2022-08-08T16:35:49.580Z,31.04
2022-08-08T16:36:49.446Z,31.16
2022-08-08T16:37:47.428Z,31.04
2022-08-08T16:38:47.606Z,31.34
2022-08-08T16:40:01.521Z,31.04
2022-08-08T16:40:46.345Z,31.14
2022-08-08T16:41:51.221Z,31.04
2022-08-08T16:42:46.353Z,31.04
2022-08-08T16:43:51.047Z,31.14
2022-08-08T16:44:53.886Z,31.14
2022-08-08T16:46:37.591Z,31.14
2022-08-08T16:46:46.745Z,31.43
2022-08-08T16:47:46.441Z,31.61
2022-08-08T16:48:46.465Z,31.81
2022-08-08T16:49:47.793Z,32.10
2022-08-08T16:50:46.493Z,32.20
2022-08-08T16:55:04.483Z,32.59
2022-08-08T16:55:05.726Z,32.96
2022-08-08T16:55:13.927Z,32.39
2022-08-08T16:55:18.050Z,32.39
2022-08-08T16:55:54.233Z,32.96
2022-08-08T16:57:04.149Z,32.96
2022-08-08T16:58:13.815Z,32.76
2022-08-08T16:58:46.630Z,33.15
2022-08-08T16:59:52.609Z,33.15
2022-08-08T17:00:48.991Z,33.25
2022-08-08T17:01:46.693Z,33.53
2022-08-08T17:02:46.878Z,33.64
2022-08-08T17:03:58.769Z,33.83
2022-08-08T17:04:46.736Z,33.54
2022-08-08T17:05:46.745Z,33.72
2022-08-08T17:06:46.765Z,33.53
2022-08-08T17:07:51.029Z,33.72
2022-08-08T17:08:47.377Z,33.91
2022-08-08T17:09:52.249Z,33.62
2022-08-08T17:10:53.631Z,33.62
2022-08-08T17:11:49.218Z,33.91
2022-08-08T17:12:52.986Z,33.81
2022-08-08T17:13:50.009Z,33.91
2022-08-08T17:14:46.905Z,33.81
2022-08-08T17:15:47.569Z,33.91
2022-08-08T17:18:03.209Z,34.50
2022-08-08T17:19:52.607Z,34.59
2022-08-08T17:20:52.618Z,34.50
2022-08-08T17:21:52.633Z,34.40
2022-08-08T17:23:01.797Z,34.40
2022-08-08T17:24:00.731Z,34.40
2022-08-08T17:24:53.826Z,34.30
2022-08-08T17:25:53.996Z,34.40
2022-08-08T17:26:52.723Z,34.50
2022-08-08T17:27:53.979Z,34.50
2022-08-08T17:28:52.754Z,34.69
2022-08-08T17:29:54.835Z,34.69
2022-08-08T17:30:52.781Z,34.59
2022-08-08T17:31:52.794Z,34.50
2022-08-08T17:34:34.872Z,34.38
2022-08-08T17:34:48.987Z,34.69
2022-08-08T17:35:52.815Z,34.67
2022-08-08T17:36:12.926Z,34.97
2022-08-08T17:37:00.748Z,34.97
2022-08-08T17:37:53.335Z,35.06
2022-08-08T17:38:52.915Z,35.06
2022-08-08T17:40:10.617Z,34.97
2022-08-08T17:40:52.968Z,35.35
2022-08-08T17:43:25.620Z,35.64
2022-08-08T17:44:27.006Z,35.45
2022-08-08T17:45:25.650Z,35.55
2022-08-08T17:46:25.667Z,35.33
2022-08-08T17:47:28.013Z,35.43
2022-08-08T17:48:30.664Z,35.63
2022-08-08T17:49:28.802Z,35.55
2022-08-08T17:50:25.724Z,35.63
2022-08-08T17:51:26.752Z,35.82
2022-08-08T17:52:25.764Z,35.72
2022-08-08T17:54:29.035Z,35.82
2022-08-08T17:56:06.108Z,35.72
2022-08-08T17:59:46.074Z,35.72
2022-08-08T18:10:31.484Z,36.38
2022-08-08T18:11:25.449Z,36.48
2022-08-08T18:12:25.455Z,36.48
2022-08-08T18:13:25.471Z,36.48
2022-08-08T18:14:25.490Z,36.58
2022-08-08T18:15:25.508Z,36.48
2022-08-08T18:16:27.033Z,36.87
2022-08-08T18:17:28.687Z,37.16
2022-08-08T18:18:28.678Z,36.97
2022-08-08T18:19:25.571Z,36.87
2022-08-08T18:20:37.303Z,36.87
2022-08-08T18:21:59.173Z,37.24
2022-08-08T18:22:32.882Z,37.34
2022-08-08T18:23:25.627Z,37.53
2022-08-08T18:24:25.647Z,37.34
2022-08-08T18:25:25.664Z,37.43
2022-08-08T18:26:25.683Z,37.63
2022-08-08T18:27:25.705Z,37.82
2022-08-08T18:28:25.897Z,37.73
2022-08-08T18:29:29.434Z,38.31
2022-08-08T18:30:25.734Z,38.40
2022-08-08T18:31:27.767Z,38.12
2022-08-08T18:32:25.772Z,38.70
2022-08-08T18:34:10.541Z,38.48
2022-08-08T18:34:27.335Z,38.29
2022-08-08T18:41:58.255Z,39.45
2022-08-08T18:42:53.416Z,39.36
2022-08-08T18:43:53.461Z,39.74
2022-08-08T18:44:57.338Z,39.84
2022-08-08T18:46:52.526Z,39.53
2022-08-08T18:46:57.793Z,39.62
2022-08-08T18:47:53.490Z,39.72
2022-08-08T18:48:53.514Z,39.53
2022-08-08T18:49:58.475Z,39.82
2022-08-08T18:50:58.410Z,39.92
2022-08-08T18:51:55.520Z,40.11
2022-08-08T18:52:53.565Z,40.21
2022-08-08T18:54:02.987Z,40.11
2022-08-08T18:54:59.625Z,40.11
2022-08-08T18:55:53.617Z,40.31
2022-08-08T18:56:53.642Z,40.21
2022-08-08T18:57:53.639Z,40.50
2022-08-08T18:58:53.661Z,40.89
2022-08-08T18:59:53.676Z,40.40
2022-08-08T19:00:53.687Z,40.67
2022-08-08T19:02:26.771Z,40.79
2022-08-08T19:02:56.187Z,40.59
2022-08-08T19:04:10.669Z,40.67
2022-08-08T19:04:53.746Z,40.40
2022-08-08T19:05:53.757Z,41.25
2022-08-08T19:06:53.778Z,40.96
2022-08-08T19:07:53.793Z,40.86
2022-08-08T19:08:53.798Z,40.86
2022-08-08T19:10:14.326Z,41.06
2022-08-08T19:10:53.827Z,40.96
2022-08-08T19:11:53.842Z,41.06
2022-08-08T19:14:26.517Z,41.35
2022-08-08T19:15:33.918Z,41.45
2022-08-08T19:16:28.406Z,41.64
2022-08-08T19:17:29.235Z,41.55
2022-08-08T19:19:14.463Z,41.74
2022-08-08T19:20:14.140Z,41.64
2022-08-08T19:21:28.003Z,41.83
2022-08-08T19:22:14.171Z,41.83
2022-08-08T19:23:14.192Z,41.72
2022-08-08T19:24:43.973Z,41.64
2022-08-08T19:25:29.356Z,41.72
2022-08-08T19:26:28.396Z,42.00
2022-08-08T19:27:15.002Z,41.91
2022-08-08T19:28:19.400Z,42.13
2022-08-08T19:29:14.276Z,42.20
2022-08-08T19:30:24.126Z,42.30
2022-08-08T19:31:17.020Z,42.10
2022-08-08T19:32:21.727Z,42.00
2022-08-08T19:33:14.335Z,42.30
2022-08-08T19:34:36.025Z,41.91
2022-08-08T19:35:14.369Z,42.10
2022-08-08T19:36:14.590Z,42.40
2022-08-08T19:37:16.569Z,42.49
2022-08-08T19:38:17.294Z,42.40
2022-08-08T19:39:14.535Z,42.68
2022-08-08T19:40:16.124Z,42.40
2022-08-08T19:41:21.003Z,42.49
2022-08-08T19:42:14.456Z,42.49
2022-08-08T19:43:14.476Z,42.68
2022-08-08T19:44:26.897Z,42.78
2022-08-08T19:45:14.496Z,42.59
2022-08-08T19:46:14.520Z,42.30
2022-08-08T19:47:14.548Z,42.40
2022-08-08T19:48:28.764Z,43.07
2022-08-08T19:49:14.551Z,42.97
2022-08-08T19:50:15.164Z,42.40
2022-08-08T19:51:14.588Z,42.57
2022-08-08T19:52:14.602Z,42.66
2022-08-08T19:53:50.792Z,42.76
2022-08-08T19:54:14.623Z,42.57
2022-08-08T19:55:14.701Z,43.05
2022-08-08T19:56:16.513Z,43.24
2022-08-08T19:57:15.924Z,43.24
2022-08-08T19:58:14.685Z,43.05
2022-08-08T19:59:14.691Z,43.05
2022-08-08T20:00:30.502Z,43.05
2022-08-08T20:01:17.326Z,43.05
2022-08-08T20:02:15.380Z,43.34
2022-08-08T20:04:01.263Z,43.24
2022-08-08T20:04:14.761Z,43.44
2022-08-08T20:05:14.782Z,43.63
2022-08-08T20:06:16.813Z,43.73
2022-08-08T20:08:27.865Z,43.71
2022-08-08T20:08:27.867Z,44.21
2022-08-08T20:09:15.895Z,43.92
2022-08-08T20:10:14.847Z,44.12
2022-08-08T20:11:14.859Z,43.73
2022-08-08T20:12:14.879Z,44.21
2022-08-08T20:14:34.136Z,44.29
2022-08-08T20:14:34.602Z,44.48
2022-08-08T20:15:17.282Z,44.38
2022-08-08T20:16:15.507Z,44.38
2022-08-08T20:17:14.946Z,44.48
2022-08-08T20:18:15.894Z,44.57
2022-08-08T20:19:14.974Z,44.87
2022-08-08T20:20:18.878Z,44.87
2022-08-08T20:21:15.003Z,44.96
2022-08-08T20:22:26.383Z,45.25
2022-08-08T20:23:16.029Z,45.35
2022-08-08T20:24:15.041Z,45.74
2022-08-08T20:25:17.410Z,45.74
2022-08-08T20:26:15.064Z,45.83
2022-08-08T20:27:20.573Z,45.81
2022-08-08T20:28:19.945Z,46.00
2022-08-08T20:29:15.116Z,46.10
2022-08-08T20:30:53.368Z,46.20
2022-08-08T20:31:19.141Z,46.39
2022-08-08T20:32:15.144Z,46.30
2022-08-08T20:34:28.127Z,46.20
2022-08-08T20:35:01.461Z,46.58
2022-08-08T20:35:59.583Z,46.97
2022-08-08T20:36:54.900Z,46.88
2022-08-08T20:37:55.003Z,46.88
2022-08-08T20:38:54.924Z,46.66
2022-08-08T20:39:54.995Z,47.16
2022-08-08T20:40:54.958Z,47.26
2022-08-08T20:41:54.967Z,47.24
2022-08-08T20:42:55.234Z,47.07
2022-08-08T20:43:55.001Z,47.14
2022-08-08T20:44:55.011Z,47.53
2022-08-08T20:45:57.792Z,47.53
2022-08-08T20:46:55.032Z,47.33
2022-08-08T20:47:57.753Z,47.24
2022-08-08T20:48:55.066Z,47.33
2022-08-08T20:49:57.773Z,47.33
2022-08-08T20:50:55.544Z,47.43
2022-08-08T20:51:55.906Z,48.01
2022-08-08T20:52:55.111Z,47.53
2022-08-08T20:53:57.871Z,48.21
2022-08-08T20:54:55.138Z,47.91
2022-08-08T20:55:55.150Z,48.11
2022-08-08T20:57:17.043Z,47.91
2022-08-08T20:57:57.974Z,48.39
2022-08-08T20:58:55.190Z,48.59
2022-08-08T20:59:55.854Z,48.39
2022-08-08T21:00:55.233Z,48.59
2022-08-08T21:02:06.628Z,48.59
2022-08-08T21:02:55.303Z,48.57
2022-08-08T21:04:00.179Z,48.59
2022-08-08T21:04:55.271Z,48.76
2022-08-08T21:05:58.533Z,49.44
2022-08-08T21:06:55.293Z,49.05
2022-08-08T21:08:33.536Z,49.05
2022-08-08T21:08:55.328Z,48.95
2022-08-08T21:10:08.237Z,49.05
2022-08-08T21:10:55.347Z,49.34
2022-08-08T21:12:02.764Z,49.34
2022-08-08T21:12:55.373Z,49.44
2022-08-08T21:13:55.391Z,49.24
2022-08-08T21:14:55.397Z,49.44
2022-08-08T21:16:06.029Z,49.53
2022-08-08T21:16:55.426Z,50.01
2022-08-08T21:17:55.911Z,49.82
2022-08-08T21:18:55.459Z,49.92
2022-08-08T21:19:58.979Z,49.73
2022-08-08T21:20:55.476Z,49.92
2022-08-08T21:21:55.696Z,49.92
2022-08-08T21:22:55.500Z,49.82
2022-08-08T21:23:59.051Z,50.01
2022-08-08T21:24:55.532Z,50.01
2022-08-08T21:25:55.549Z,49.80
2022-08-08T21:26:55.673Z,49.92
2022-08-08T21:28:09.391Z,49.92
2022-08-08T21:28:56.094Z,50.09
2022-08-08T21:30:05.605Z,49.92
2022-08-08T21:30:55.631Z,49.60
2022-08-08T21:31:58.450Z,50.09
2022-08-08T21:32:55.629Z,49.90
2022-08-08T21:33:56.252Z,49.80
2022-08-08T21:34:56.907Z,49.51
2022-08-08T21:36:17.624Z,50.28
2022-08-08T21:36:55.678Z,50.67
2022-08-08T21:37:55.811Z,50.28
2022-08-08T21:38:55.712Z,50.28
2022-08-08T21:39:57.020Z,50.38
2022-08-08T21:40:57.173Z,50.67
2022-08-08T21:41:59.120Z,50.47
2022-08-08T21:42:55.759Z,50.76
2022-08-08T21:43:55.774Z,50.67
2022-08-08T21:44:58.165Z,50.47
2022-08-08T21:48:03.730Z,50.96
2022-08-08T21:48:04.479Z,51.22
2022-08-08T21:48:06.370Z,51.22
2022-08-08T21:48:56.339Z,50.93
2022-08-08T21:49:55.843Z,51.22
2022-08-08T21:50:55.862Z,51.12